createdAt,value
2022-11-04T00:00:00.357Z,1003.92
2022-11-04T00:01:00.580Z,1003.88
2022-11-04T00:02:00.732Z,1003.89
2022-11-04T00:03:00.859Z,1003.87
2022-11-04T00:04:01.029Z,1003.87
2022-11-04T00:05:01.224Z,1003.87
2022-11-04T00:06:01.400Z,1003.87
2022-11-04T00:07:01.595Z,1003.91
2022-11-04T00:08:01.761Z,1003.87
2022-11-04T00:09:01.961Z,1003.89
2022-11-04T00:10:02.098Z,1003.85
2022-11-04T00:11:02.283Z,1003.84
2022-11-04T00:12:02.470Z,1003.85
2022-11-04T00:13:02.643Z,1003.88
2022-11-04T00:14:02.793Z,1003.86
2022-11-04T00:15:02.983Z,1003.87
2022-11-04T00:16:03.163Z,1003.84
2022-11-04T00:17:03.345Z,1003.85
2022-11-04T00:18:03.492Z,1003.82
2022-11-04T00:19:03.673Z,1003.86
2022-11-04T00:20:03.866Z,1003.80
2022-11-04T00:21:04.063Z,1003.85
2022-11-04T00:22:04.197Z,1003.81
2022-11-04T00:23:04.384Z,1003.84
2022-11-04T00:24:04.584Z,1003.82
2022-11-04T00:25:04.760Z,1003.83
2022-11-04T00:26:04.948Z,1003.81
2022-11-04T00:27:05.106Z,1003.86
2022-11-04T00:28:05.538Z,1003.81
2022-11-04T00:29:05.466Z,1003.76
2022-11-04T00:30:05.715Z,1003.76
2022-11-04T00:31:05.779Z,1003.75
2022-11-04T00:32:05.953Z,1003.74
2022-11-04T00:33:06.121Z,1003.73
2022-11-04T00:34:06.318Z,1003.73
2022-11-04T00:35:06.468Z,1003.75
2022-11-04T00:36:06.646Z,1003.71
2022-11-04T00:37:06.830Z,1003.72
2022-11-04T00:38:07.217Z,1003.74
2022-11-04T00:39:07.230Z,1003.73
2022-11-04T00:40:07.346Z,1003.76
2022-11-04T00:41:07.529Z,1003.82
2022-11-04T00:42:07.690Z,1003.79
2022-11-04T00:43:07.849Z,1003.72
2022-11-04T00:44:08.021Z,1003.68
2022-11-04T00:45:08.222Z,1003.68
2022-11-04T00:46:08.372Z,1003.65
2022-11-04T00:47:08.565Z,1003.63
2022-11-04T00:48:08.928Z,1003.59
2022-11-04T00:49:08.932Z,1003.59
2022-11-04T00:50:09.107Z,1003.55
2022-11-04T00:51:09.334Z,1003.50
2022-11-04T00:52:09.463Z,1003.54
2022-11-04T00:53:12.634Z,1003.54
2022-11-04T00:54:09.804Z,1003.55
2022-11-04T00:55:09.984Z,1003.56
2022-11-04T00:56:10.125Z,1003.56
2022-11-04T00:57:10.325Z,1003.57
2022-11-04T00:58:10.475Z,1003.51
2022-11-04T00:59:13.485Z,1003.52
2022-11-04T01:00:10.833Z,1003.56
2022-11-04T01:01:11.046Z,1003.52
2022-11-04T01:02:11.258Z,1003.54
2022-11-04T01:03:11.656Z,1003.52
2022-11-04T01:04:11.559Z,1003.57
2022-11-04T01:05:11.730Z,1003.58
2022-11-04T01:06:11.877Z,1003.59
2022-11-04T01:07:12.047Z,1003.56
2022-11-04T01:08:12.228Z,1003.60
2022-11-04T01:09:12.387Z,1003.57
2022-11-04T01:10:12.589Z,1003.59
2022-11-04T01:11:12.747Z,1003.56
2022-11-04T01:12:12.918Z,1003.54
2022-11-04T01:13:13.108Z,1003.51
2022-11-04T01:14:13.290Z,1003.49
2022-11-04T01:15:13.505Z,1003.46
2022-11-04T01:16:13.700Z,1003.48
2022-11-04T01:17:13.838Z,1003.45
2022-11-04T01:18:14.011Z,1003.46
2022-11-04T01:19:14.195Z,1003.45
2022-11-04T01:20:14.383Z,1003.44
2022-11-04T01:21:14.521Z,1003.44
2022-11-04T01:22:14.676Z,1003.50
2022-11-04T01:23:14.871Z,1003.49
2022-11-04T01:24:15.033Z,1003.53
2022-11-04T01:25:15.235Z,1003.50
2022-11-04T01:26:15.387Z,1003.49
2022-11-04T01:27:15.581Z,1003.49
2022-11-04T01:28:15.727Z,1003.54
2022-11-04T01:29:15.890Z,1003.54
2022-11-04T01:30:16.052Z,1003.61
2022-11-04T01:31:16.234Z,1003.60
2022-11-04T01:32:16.424Z,1003.55
2022-11-04T01:33:16.575Z,1003.54
2022-11-04T01:34:16.744Z,1003.50
2022-11-04T01:35:16.924Z,1003.51
2022-11-04T01:36:17.083Z,1003.48
2022-11-04T01:37:17.269Z,1003.48
2022-11-04T01:38:17.425Z,1003.47
2022-11-04T01:39:17.581Z,1003.44
2022-11-04T01:40:17.758Z,1003.43
2022-11-04T01:41:17.944Z,1003.44
2022-11-04T01:42:18.150Z,1003.45
2022-11-04T01:43:18.304Z,1003.40
2022-11-04T01:44:18.468Z,1003.39
2022-11-04T01:45:18.658Z,1003.41
2022-11-04T01:46:18.849Z,1003.37
2022-11-04T01:47:19.026Z,1003.41
2022-11-04T01:48:19.182Z,1003.39
2022-11-04T01:49:19.396Z,1003.39
2022-11-04T01:50:19.549Z,1003.37
2022-11-04T01:51:19.720Z,1003.37
2022-11-04T01:52:19.880Z,1003.32
2022-11-04T01:53:20.042Z,1003.33
2022-11-04T01:54:20.259Z,1003.35
2022-11-04T01:55:20.400Z,1003.33
2022-11-04T01:56:20.574Z,1003.30
2022-11-04T01:57:20.735Z,1003.25
2022-11-04T01:58:20.915Z,1003.24
2022-11-04T01:59:21.122Z,1003.25
2022-11-04T02:00:21.261Z,1003.27
2022-11-04T02:01:21.562Z,1003.25
2022-11-04T02:02:21.860Z,1003.26
2022-11-04T02:03:21.841Z,1003.24
2022-11-04T02:04:21.988Z,1003.21
2022-11-04T02:05:22.163Z,1003.24
2022-11-04T02:06:22.310Z,1003.23
2022-11-04T02:07:22.487Z,1003.19
2022-11-04T02:08:22.638Z,1003.23
2022-11-04T02:09:22.797Z,1003.25
2022-11-04T02:10:22.962Z,1003.19
2022-11-04T02:11:23.138Z,1003.25
2022-11-04T02:12:23.285Z,1003.23
2022-11-04T02:13:23.474Z,1003.21
2022-11-04T02:14:23.633Z,1003.23
2022-11-04T02:15:23.795Z,1003.23
2022-11-04T02:16:23.995Z,1003.24
2022-11-04T02:17:24.167Z,1003.23
2022-11-04T02:18:24.330Z,1003.24
2022-11-04T02:19:24.496Z,1003.19
2022-11-04T02:20:24.677Z,1003.22
2022-11-04T02:21:24.850Z,1003.19
2022-11-04T02:22:24.999Z,1003.15
2022-11-04T02:23:25.199Z,1003.14
2022-11-04T02:24:25.378Z,1003.10
2022-11-04T02:25:25.587Z,1003.08
2022-11-04T02:26:25.733Z,1003.05
2022-11-04T02:27:25.901Z,1003.00
2022-11-04T02:28:26.055Z,1002.98
2022-11-04T02:29:26.218Z,1002.96
2022-11-04T02:30:26.409Z,1002.95
2022-11-04T02:31:26.557Z,1002.91
2022-11-04T02:32:26.727Z,1002.86
2022-11-04T02:33:26.883Z,1002.84
2022-11-04T02:34:27.089Z,1002.84
2022-11-04T02:35:27.240Z,1002.82
2022-11-04T02:36:27.398Z,1002.76
2022-11-04T02:37:27.580Z,1002.77
2022-11-04T02:38:27.741Z,1002.81
2022-11-04T02:39:27.920Z,1002.71
2022-11-04T02:40:28.079Z,1002.81
2022-11-04T02:41:28.264Z,1002.77
2022-11-04T02:42:28.420Z,1002.80
2022-11-04T02:43:28.583Z,1002.81
2022-11-04T02:44:28.773Z,1002.83
2022-11-04T02:45:28.933Z,1002.83
2022-11-04T02:46:29.114Z,1002.96
2022-11-04T02:47:29.278Z,1002.97
2022-11-04T02:48:29.454Z,1003.02
2022-11-04T02:49:29.635Z,1002.93
2022-11-04T02:50:29.819Z,1002.88
2022-11-04T02:51:29.979Z,1002.87
2022-11-04T02:52:30.156Z,1002.82
2022-11-04T02:53:30.329Z,1002.76
2022-11-04T02:54:30.505Z,1002.70
2022-11-04T02:55:30.657Z,1002.75
2022-11-04T02:56:30.845Z,1002.65
2022-11-04T02:57:31.044Z,1002.66
2022-11-04T02:58:31.218Z,1002.71
2022-11-04T02:59:31.408Z,1002.67
2022-11-04T03:00:31.557Z,1002.63
2022-11-04T03:01:31.812Z,1002.67
2022-11-04T03:02:31.943Z,1002.67
2022-11-04T03:03:32.068Z,1002.68
2022-11-04T03:04:32.218Z,1002.63
2022-11-04T03:05:32.407Z,1002.62
2022-11-04T03:06:32.568Z,1002.63
2022-11-04T03:07:32.769Z,1002.63
2022-11-04T03:08:32.922Z,1002.67
2022-11-04T03:09:33.123Z,1002.71
2022-11-04T03:10:33.271Z,1002.75
2022-11-04T03:11:33.430Z,1002.76
2022-11-04T03:12:33.631Z,1002.81
2022-11-04T03:13:33.803Z,1002.86
2022-11-04T03:14:33.940Z,1002.99
2022-11-04T03:15:34.131Z,1003.04
2022-11-04T03:16:34.310Z,1003.10
2022-11-04T03:17:34.522Z,1003.10
2022-11-04T03:18:34.656Z,1003.13
2022-11-04T03:19:34.813Z,1003.06
2022-11-04T03:20:34.973Z,1003.07
2022-11-04T03:21:35.133Z,1003.11
2022-11-04T03:22:35.352Z,1003.09
2022-11-04T03:23:35.514Z,1003.12
2022-11-04T03:24:35.687Z,1003.14
2022-11-04T03:25:35.865Z,1003.16
2022-11-04T03:26:36.014Z,1003.19
2022-11-04T03:27:36.194Z,1003.19
2022-11-04T03:28:36.347Z,1003.15
2022-11-04T03:29:36.533Z,1003.17
2022-11-04T03:30:36.692Z,1003.17
2022-11-04T03:31:36.875Z,1003.12
2022-11-04T03:32:37.047Z,1003.15
2022-11-04T03:33:37.226Z,1003.18
2022-11-04T03:34:37.384Z,1003.23
2022-11-04T03:35:37.547Z,1003.21
2022-11-04T03:36:37.727Z,1003.25
2022-11-04T03:37:37.905Z,1003.25
2022-11-04T03:38:38.050Z,1003.25
2022-11-04T03:39:38.215Z,1003.29
2022-11-04T03:40:38.368Z,1003.29
2022-11-04T03:41:38.559Z,1003.33
2022-11-04T03:42:38.729Z,1003.24
2022-11-04T03:43:38.897Z,1003.24
2022-11-04T03:44:39.059Z,1003.26
2022-11-04T03:45:39.231Z,1003.22
2022-11-04T03:46:39.371Z,1003.24
2022-11-04T03:47:39.531Z,1003.25
2022-11-04T03:48:39.722Z,1003.22
2022-11-04T03:49:39.863Z,1003.21
2022-11-04T03:50:40.024Z,1003.19
2022-11-04T03:51:40.185Z,1003.20
2022-11-04T03:52:40.349Z,1003.19
2022-11-04T03:53:40.551Z,1003.21
2022-11-04T03:54:40.719Z,1003.23
2022-11-04T03:55:40.862Z,1003.19
2022-11-04T03:56:41.028Z,1003.20
2022-11-04T03:57:41.183Z,1003.21
2022-11-04T03:58:41.342Z,1003.25
2022-11-04T03:59:41.522Z,1003.22
2022-11-04T04:00:41.677Z,1003.26
2022-11-04T04:01:41.899Z,1003.30
2022-11-04T04:02:41.996Z,1003.29
2022-11-04T04:03:42.155Z,1003.29
2022-11-04T04:04:42.340Z,1003.25
2022-11-04T04:05:42.489Z,1003.24
2022-11-04T04:06:42.655Z,1003.25
2022-11-04T04:07:42.829Z,1003.23
2022-11-04T04:08:42.985Z,1003.25
2022-11-04T04:09:43.190Z,1003.24
2022-11-04T04:10:43.351Z,1003.21
2022-11-04T04:11:43.504Z,1003.24
2022-11-04T04:12:43.666Z,1003.22
2022-11-04T04:13:43.824Z,1003.23
2022-11-04T04:14:44.028Z,1003.18
2022-11-04T04:15:44.178Z,1003.20
2022-11-04T04:16:44.347Z,1003.17
2022-11-04T04:17:44.542Z,1003.12
2022-11-04T04:18:44.698Z,1003.12
2022-11-04T04:19:44.880Z,1003.09
2022-11-04T04:20:45.059Z,1003.05
2022-11-04T04:21:45.216Z,1003.08
2022-11-04T04:22:45.392Z,1003.05
2022-11-04T04:23:45.540Z,1003.06
2022-11-04T04:24:45.725Z,1003.07
2022-11-04T04:25:45.890Z,1003.12
2022-11-04T04:26:46.041Z,1003.17
2022-11-04T04:27:46.222Z,1003.17
2022-11-04T04:28:46.391Z,1003.15
2022-11-04T04:29:46.548Z,1003.16
2022-11-04T04:30:46.712Z,1003.09
2022-11-04T04:31:46.897Z,1003.13
2022-11-04T04:32:47.085Z,1003.19
2022-11-04T04:33:47.226Z,1003.15
2022-11-04T04:34:47.424Z,1003.17
2022-11-04T04:35:47.585Z,1003.13
2022-11-04T04:36:47.736Z,1003.10
2022-11-04T04:37:47.917Z,1003.11
2022-11-04T04:38:48.072Z,1003.07
2022-11-04T04:39:48.224Z,1003.08
2022-11-04T04:40:48.449Z,1003.08
2022-11-04T04:41:48.554Z,1003.12
2022-11-04T04:42:48.775Z,1003.15
2022-11-04T04:43:48.915Z,1003.12
2022-11-04T04:44:49.115Z,1003.15
2022-11-04T04:45:49.281Z,1003.17
2022-11-04T04:46:49.456Z,1003.14
2022-11-04T04:47:49.596Z,1003.17
2022-11-04T04:48:49.796Z,1003.18
2022-11-04T04:49:49.952Z,1003.16
2022-11-04T04:50:50.136Z,1003.20
2022-11-04T04:51:50.307Z,1003.16
2022-11-04T04:52:50.485Z,1003.19
2022-11-04T04:53:50.638Z,1003.21
2022-11-04T04:54:50.798Z,1003.19
2022-11-04T04:55:50.980Z,1003.20
2022-11-04T04:56:51.144Z,1003.22
2022-11-04T04:57:51.320Z,1003.20
2022-11-04T04:58:51.468Z,1003.18
2022-11-04T04:59:51.624Z,1003.17
2022-11-04T05:00:51.859Z,1003.18
2022-11-04T05:01:52.114Z,1003.18
2022-11-04T05:02:52.211Z,1003.16
2022-11-04T05:03:52.360Z,1003.19
2022-11-04T05:04:52.523Z,1003.15
2022-11-04T05:05:54.932Z,1003.20
2022-11-04T05:06:53.860Z,1003.18
2022-11-04T05:07:53.052Z,1003.11
2022-11-04T05:08:53.203Z,1003.11
2022-11-04T05:09:53.352Z,1003.14
2022-11-04T05:10:53.554Z,1003.14
2022-11-04T05:11:53.706Z,1003.15
2022-11-04T05:12:53.915Z,1003.14
2022-11-04T05:13:54.074Z,1003.18
2022-11-04T05:14:54.257Z,1003.23
2022-11-04T05:15:54.402Z,1003.22
2022-11-04T05:16:54.565Z,1003.27
2022-11-04T05:17:54.740Z,1003.28
2022-11-04T05:18:54.890Z,1003.26
2022-11-04T05:19:55.050Z,1003.32
2022-11-04T05:20:55.211Z,1003.29
2022-11-04T05:21:55.368Z,1003.32
2022-11-04T05:22:55.555Z,1003.33
2022-11-04T05:23:55.706Z,1003.36
2022-11-04T05:24:55.866Z,1003.34
2022-11-04T05:25:56.027Z,1003.33
2022-11-04T05:26:56.186Z,1003.38
2022-11-04T05:27:56.397Z,1003.38
2022-11-04T05:28:56.517Z,1003.39
2022-11-04T05:29:56.699Z,1003.42
2022-11-04T05:30:56.866Z,1003.50
2022-11-04T05:31:57.052Z,1003.48
2022-11-04T05:33:00.033Z,1003.54
2022-11-04T05:33:58.420Z,1003.49
2022-11-04T05:34:57.567Z,1003.56
2022-11-04T05:35:57.745Z,1003.55
2022-11-04T05:36:57.939Z,1003.58
2022-11-04T05:37:58.114Z,1003.56
2022-11-04T05:38:58.249Z,1003.62
2022-11-04T05:39:58.409Z,1003.66
2022-11-04T05:40:58.570Z,1003.63
2022-11-04T05:41:58.731Z,1003.61
2022-11-04T05:42:58.905Z,1003.57
2022-11-04T05:43:59.053Z,1003.58
2022-11-04T05:44:59.216Z,1003.59
2022-11-04T05:45:59.373Z,1003.62
2022-11-04T05:46:59.541Z,1003.64
2022-11-04T05:47:59.713Z,1003.65
2022-11-04T05:48:59.886Z,1003.69
2022-11-04T05:50:00.032Z,1003.70
2022-11-04T05:51:00.193Z,1003.67
2022-11-04T05:52:00.420Z,1003.65
2022-11-04T05:53:00.553Z,1003.62
2022-11-04T05:54:00.710Z,1003.62
2022-11-04T05:55:00.903Z,1003.59
2022-11-04T05:56:01.062Z,1003.62
2022-11-04T05:57:01.245Z,1003.68
2022-11-04T05:58:01.404Z,1003.69
2022-11-04T05:59:01.559Z,1003.72
2022-11-04T06:00:01.721Z,1003.67
2022-11-04T06:01:01.883Z,1003.67
2022-11-04T06:02:02.221Z,1003.75
2022-11-04T06:03:02.301Z,1003.73
2022-11-04T06:04:02.407Z,1003.73
2022-11-04T06:05:02.574Z,1003.77
2022-11-04T06:06:02.720Z,1003.84
2022-11-04T06:07:02.931Z,1003.86
2022-11-04T06:08:03.067Z,1003.88
2022-11-04T06:09:03.223Z,1003.94
2022-11-04T06:10:03.385Z,1003.93
2022-11-04T06:11:03.539Z,1003.95
2022-11-04T06:12:03.719Z,1003.88
2022-11-04T06:13:03.871Z,1003.86
2022-11-04T06:14:04.019Z,1003.86
2022-11-04T06:15:04.219Z,1003.83
2022-11-04T06:16:04.381Z,1003.85
2022-11-04T06:17:04.830Z,1003.89
2022-11-04T06:18:04.702Z,1003.93
2022-11-04T06:19:08.663Z,1004.02
2022-11-04T06:20:06.062Z,1004.06
2022-11-04T06:21:05.247Z,1004.09
2022-11-04T06:22:05.440Z,1004.09
2022-11-04T06:23:05.592Z,1004.11
2022-11-04T06:24:05.754Z,1004.12
2022-11-04T06:25:05.913Z,1004.09
2022-11-04T06:26:06.072Z,1004.11
2022-11-04T06:27:06.243Z,1004.15
2022-11-04T06:28:06.708Z,1004.17
2022-11-04T06:29:06.589Z,1004.21
2022-11-04T06:30:06.745Z,1004.20
2022-11-04T06:31:06.904Z,1004.23
2022-11-04T06:32:07.088Z,1004.25
2022-11-04T06:33:07.236Z,1004.30
2022-11-04T06:34:07.389Z,1004.24
2022-11-04T06:35:07.545Z,1004.30
2022-11-04T06:36:07.720Z,1004.29
2022-11-04T06:37:07.886Z,1004.32
2022-11-04T06:38:08.356Z,1004.36
2022-11-04T06:39:08.227Z,1004.33
2022-11-04T06:40:08.416Z,1004.34
2022-11-04T06:41:08.584Z,1004.40
2022-11-04T06:42:08.751Z,1004.45
2022-11-04T06:43:09.065Z,1004.44
2022-11-04T06:44:09.060Z,1004.42
2022-11-04T06:45:09.219Z,1004.41
2022-11-04T06:46:09.377Z,1004.40
2022-11-04T06:47:09.593Z,1004.40
2022-11-04T06:48:09.751Z,1004.39
2022-11-04T06:49:09.913Z,1004.45
2022-11-04T06:50:10.072Z,1004.50
2022-11-04T06:51:10.240Z,1004.51
2022-11-04T06:52:10.392Z,1004.56
2022-11-04T06:54:06.492Z,1004.56
2022-11-04T06:55:06.665Z,1004.52
2022-11-04T06:56:06.835Z,1004.52
2022-11-04T06:57:06.990Z,1004.53
2022-11-04T06:58:07.154Z,1004.51
2022-11-04T06:59:07.319Z,1004.55
2022-11-04T07:00:07.497Z,1004.55
2022-11-04T07:01:14.648Z,1004.58
2022-11-04T07:02:08.958Z,1004.58
2022-11-04T07:03:08.222Z,1004.59
2022-11-04T07:04:08.184Z,1004.53
2022-11-04T07:05:08.588Z,1004.55
2022-11-04T07:06:08.538Z,1004.51
2022-11-04T07:07:08.706Z,1004.46
2022-11-04T07:08:09.229Z,1004.47
2022-11-04T07:09:09.032Z,1004.45
2022-11-04T07:10:09.213Z,1004.44
2022-11-04T07:11:09.378Z,1004.45
2022-11-04T07:12:09.547Z,1004.43
2022-11-04T07:13:09.733Z,1004.45
2022-11-04T07:14:09.904Z,1004.40
2022-11-04T07:15:10.114Z,1004.38
2022-11-04T07:16:10.239Z,1004.38
2022-11-04T07:17:10.411Z,1004.33
2022-11-04T07:18:10.973Z,1004.33
2022-11-04T07:19:10.751Z,1004.38
2022-11-04T07:20:10.939Z,1004.39
2022-11-04T07:21:11.117Z,1004.38
2022-11-04T07:22:11.285Z,1004.42
2022-11-04T07:23:11.464Z,1004.44
2022-11-04T07:24:11.637Z,1004.44
2022-11-04T07:25:11.833Z,1004.44
2022-11-04T07:26:12.003Z,1004.45
2022-11-04T07:27:12.177Z,1004.45
2022-11-04T07:28:12.778Z,1004.41
2022-11-04T07:29:12.531Z,1004.38
2022-11-04T07:30:12.703Z,1004.37
2022-11-04T07:31:12.884Z,1004.36
2022-11-04T07:32:13.043Z,1004.37
2022-11-04T07:33:13.224Z,1004.41
2022-11-04T07:34:13.395Z,1004.42
2022-11-04T07:35:13.596Z,1004.42
2022-11-04T07:36:13.745Z,1004.44
2022-11-04T07:37:13.915Z,1004.46
2022-11-04T07:38:14.094Z,1004.49
2022-11-04T07:39:14.275Z,1004.47
2022-11-04T07:40:14.455Z,1004.43
2022-11-04T07:41:14.624Z,1004.44
2022-11-04T07:42:14.786Z,1004.43
2022-11-04T07:43:14.966Z,1004.37
2022-11-04T07:44:15.149Z,1004.36
2022-11-04T07:45:15.380Z,1004.37
2022-11-04T07:46:15.502Z,1004.32
2022-11-04T07:47:15.657Z,1004.37
2022-11-04T07:48:15.828Z,1004.33
2022-11-04T07:49:16.003Z,1004.35
2022-11-04T07:50:16.223Z,1004.34
2022-11-04T07:51:16.380Z,1004.30
2022-11-04T07:52:16.551Z,1004.32
2022-11-04T07:53:16.736Z,1004.32
2022-11-04T07:54:16.909Z,1004.32
2022-11-04T07:55:17.080Z,1004.35
2022-11-04T07:56:17.252Z,1004.34
2022-11-04T07:57:17.411Z,1004.33
2022-11-04T07:58:17.578Z,1004.32
2022-11-04T07:59:18.001Z,1004.28
2022-11-04T08:00:17.930Z,1004.29
2022-11-04T08:01:18.158Z,1004.26
2022-11-04T08:02:23.934Z,1004.21
2022-11-04T08:03:19.535Z,1004.18
2022-11-04T08:04:18.623Z,1004.15
2022-11-04T08:05:18.794Z,1004.18
2022-11-04T08:06:18.966Z,1004.15
2022-11-04T08:07:19.154Z,1004.15
2022-11-04T08:08:19.338Z,1004.21
2022-11-04T08:09:19.823Z,1004.22
2022-11-04T08:10:19.694Z,1004.22
2022-11-04T08:11:19.879Z,1004.25
2022-11-04T08:12:20.055Z,1004.28
2022-11-04T08:13:20.237Z,1004.21
2022-11-04T08:14:20.424Z,1004.25
2022-11-04T08:15:20.605Z,1004.29
2022-11-04T08:16:20.793Z,1004.32
2022-11-04T08:17:20.975Z,1004.33
2022-11-04T08:18:21.150Z,1004.36
2022-11-04T08:19:21.317Z,1004.42
2022-11-04T08:20:21.507Z,1004.49
2022-11-04T08:21:21.697Z,1004.48
2022-11-04T08:22:21.838Z,1004.55
2022-11-04T08:23:22.036Z,1004.60
2022-11-04T08:24:22.169Z,1004.61
2022-11-04T08:25:22.380Z,1004.66
2022-11-04T08:26:22.518Z,1004.66
2022-11-04T08:27:22.698Z,1004.69
2022-11-04T08:28:22.869Z,1004.73
2022-11-04T08:29:23.053Z,1004.76
2022-11-04T08:30:23.213Z,1004.75
2022-11-04T08:31:23.426Z,1004.74
2022-11-04T08:32:23.585Z,1004.74
2022-11-04T08:33:23.775Z,1004.76
2022-11-04T08:34:23.951Z,1004.76
2022-11-04T08:35:24.123Z,1004.73
2022-11-04T08:36:24.302Z,1004.74
2022-11-04T08:37:24.491Z,1004.74
2022-11-04T08:38:24.673Z,1004.74
2022-11-04T08:39:24.876Z,1004.79
2022-11-04T08:40:25.014Z,1004.75
2022-11-04T08:41:25.194Z,1004.73
2022-11-04T08:42:25.342Z,1004.73
2022-11-04T08:43:25.529Z,1004.74
2022-11-04T08:44:25.728Z,1004.76
2022-11-04T08:45:29.997Z,1004.75
2022-11-04T08:46:27.045Z,1004.76
2022-11-04T08:47:26.224Z,1004.77
2022-11-04T08:48:26.401Z,1004.76
2022-11-04T08:49:26.594Z,1004.76
2022-11-04T08:50:26.766Z,1004.76
2022-11-04T08:51:26.954Z,1004.75
2022-11-04T08:52:27.135Z,1004.74
2022-11-04T08:53:27.329Z,1004.76
2022-11-04T08:54:27.498Z,1004.81
2022-11-04T08:55:27.656Z,1004.80
2022-11-04T08:56:27.806Z,1004.82
2022-11-04T08:57:27.995Z,1004.76
2022-11-04T08:58:28.173Z,1004.78
2022-11-04T08:59:28.367Z,1004.77
2022-11-04T09:00:28.539Z,1004.76
2022-11-04T09:01:32.694Z,1004.77
2022-11-04T09:02:29.899Z,1004.75
2022-11-04T09:03:29.111Z,1004.75
2022-11-04T09:04:29.244Z,1004.73
2022-11-04T09:05:29.421Z,1004.75
2022-11-04T09:06:29.608Z,1004.74
2022-11-04T09:07:29.818Z,1004.73
2022-11-04T09:08:29.964Z,1004.72
2022-11-04T09:09:30.147Z,1004.74
2022-11-04T09:10:30.325Z,1004.75
2022-11-04T09:11:30.524Z,1004.77
2022-11-04T09:12:30.691Z,1004.75
2022-11-04T09:13:33.357Z,1004.76
2022-11-04T09:14:32.022Z,1004.78
2022-11-04T09:15:31.210Z,1004.77
2022-11-04T09:16:31.382Z,1004.79
2022-11-04T09:17:31.543Z,1004.78
2022-11-04T09:18:31.745Z,1004.71
2022-11-04T09:19:31.913Z,1004.67
2022-11-04T09:20:32.067Z,1004.65
2022-11-04T09:21:32.256Z,1004.68
2022-11-04T09:22:32.418Z,1004.66
2022-11-04T09:23:32.601Z,1004.69
2022-11-04T09:24:32.768Z,1004.59
2022-11-04T09:25:32.955Z,1004.63
2022-11-04T09:26:33.155Z,1004.57
2022-11-04T09:27:33.316Z,1004.58
2022-11-04T09:28:33.486Z,1004.60
2022-11-04T09:29:33.674Z,1004.60
2022-11-04T09:30:33.869Z,1004.54
2022-11-04T09:31:34.094Z,1004.53
2022-11-04T09:32:34.187Z,1004.51
2022-11-04T09:33:34.440Z,1004.54
2022-11-04T09:34:34.526Z,1004.52
2022-11-04T09:35:34.702Z,1004.45
2022-11-04T09:36:34.900Z,1004.47
2022-11-04T09:37:35.070Z,1004.45
2022-11-04T09:38:35.247Z,1004.43
2022-11-04T09:39:35.431Z,1004.43
2022-11-04T09:40:35.607Z,1004.44
2022-11-04T09:41:35.821Z,1004.44
2022-11-04T09:42:35.972Z,1004.45
2022-11-04T09:43:36.150Z,1004.43
2022-11-04T09:44:53.358Z,1004.40
2022-11-04T09:45:37.492Z,1004.42
2022-11-04T09:46:36.672Z,1004.41
2022-11-04T09:47:36.821Z,1004.41
2022-11-04T09:48:37.013Z,1004.51
2022-11-04T09:49:37.191Z,1004.47
2022-11-04T09:50:37.380Z,1004.48
2022-11-04T09:51:53.934Z,1004.52
2022-11-04T09:52:38.733Z,1004.47
2022-11-04T09:53:37.875Z,1004.51
2022-11-04T09:54:39.950Z,1004.60
2022-11-04T09:55:39.244Z,1004.60
2022-11-04T09:56:38.448Z,1004.59
2022-11-04T09:57:38.697Z,1004.67
2022-11-04T09:58:38.790Z,1004.72
2022-11-04T09:59:38.959Z,1004.81
2022-11-04T10:00:39.205Z,1004.76
2022-11-04T10:01:39.452Z,1004.79
2022-11-04T10:02:39.475Z,1004.82
2022-11-04T10:03:39.606Z,1004.82
2022-11-04T10:04:39.796Z,1004.85
2022-11-04T10:05:39.950Z,1004.84
2022-11-04T10:06:40.155Z,1004.84
2022-11-04T10:07:40.325Z,1004.84
2022-11-04T10:08:40.517Z,1004.81
2022-11-04T10:09:40.670Z,1004.79
2022-11-04T10:10:40.860Z,1004.79
2022-11-04T10:11:41.029Z,1004.80
2022-11-04T10:12:41.206Z,1004.81
2022-11-04T10:13:41.368Z,1004.79
2022-11-04T10:14:41.528Z,1004.74
2022-11-04T10:15:41.680Z,1004.72
2022-11-04T10:16:41.882Z,1004.71
2022-11-04T10:17:42.030Z,1004.65
2022-11-04T10:18:42.234Z,1004.70
2022-11-04T10:19:42.401Z,1004.68
2022-11-04T10:20:43.989Z,1004.68
2022-11-04T10:21:42.752Z,1004.70
2022-11-04T10:22:42.941Z,1004.70
2022-11-04T10:23:43.131Z,1004.73
2022-11-04T10:24:43.297Z,1004.73
2022-11-04T10:25:43.452Z,1004.76
2022-11-04T10:26:43.642Z,1004.77
2022-11-04T10:27:43.807Z,1004.77
2022-11-04T10:28:44.006Z,1004.77
2022-11-04T10:29:44.172Z,1004.82
2022-11-04T10:30:44.367Z,1004.86
2022-11-04T10:31:44.544Z,1004.88
2022-11-04T10:32:44.749Z,1004.92
2022-11-04T10:33:45.003Z,1004.95
2022-11-04T10:34:45.084Z,1004.97
2022-11-04T10:35:45.264Z,1004.93
2022-11-04T10:36:45.447Z,1004.97
2022-11-04T10:37:45.647Z,1004.96
2022-11-04T10:38:45.803Z,1004.97
2022-11-04T10:39:45.986Z,1005.02
2022-11-04T10:40:46.177Z,1005.02
2022-11-04T10:41:46.345Z,1005.03
2022-11-04T10:42:46.558Z,1005.09
2022-11-04T10:43:46.723Z,1005.07
2022-11-04T10:44:46.879Z,1005.11
2022-11-04T10:45:47.038Z,1005.10
2022-11-04T10:46:47.212Z,1005.09
2022-11-04T10:47:47.379Z,1005.12
2022-11-04T10:48:47.550Z,1005.13
2022-11-04T10:50:14.051Z,1005.12
2022-11-04T10:50:48.899Z,1005.09
2022-11-04T10:51:48.053Z,1005.07
2022-11-04T10:52:48.219Z,1005.10
2022-11-04T10:53:48.385Z,1005.04
2022-11-04T10:54:48.560Z,1005.08
2022-11-04T10:55:48.725Z,1005.04
2022-11-04T10:56:48.977Z,1005.07
2022-11-04T10:57:49.074Z,1005.10
2022-11-04T10:58:49.242Z,1005.11
2022-11-04T10:59:49.422Z,1005.13
2022-11-04T11:00:49.677Z,1005.15
2022-11-04T11:01:49.858Z,1005.16
2022-11-04T11:02:49.944Z,1005.17
2022-11-04T11:03:50.117Z,1005.27
2022-11-04T11:04:50.321Z,1005.24
2022-11-04T11:05:50.464Z,1005.32
2022-11-04T11:06:50.654Z,1005.32
2022-11-04T11:07:50.834Z,1005.36
2022-11-04T11:08:51.023Z,1005.41
2022-11-04T11:09:53.967Z,1005.43
2022-11-04T11:10:51.386Z,1005.44
2022-11-04T11:11:51.574Z,1005.44
2022-11-04T11:12:52.336Z,1005.53
2022-11-04T11:13:51.877Z,1005.50
2022-11-04T11:14:52.075Z,1005.55
2022-11-04T11:15:52.230Z,1005.57
2022-11-04T11:16:52.420Z,1005.61
2022-11-04T11:17:52.608Z,1005.60
2022-11-04T11:18:53.765Z,1005.64
2022-11-04T11:19:52.987Z,1005.65
2022-11-04T11:20:53.148Z,1005.66
2022-11-04T11:21:53.305Z,1005.64
2022-11-04T11:22:53.516Z,1005.67
2022-11-04T11:23:53.649Z,1005.70
2022-11-04T11:24:53.876Z,1005.70
2022-11-04T11:25:54.022Z,1005.73
2022-11-04T11:26:54.201Z,1005.75
2022-11-04T11:27:54.379Z,1005.75
2022-11-04T11:28:58.880Z,1005.76
2022-11-04T11:29:55.742Z,1005.75
2022-11-04T11:30:54.902Z,1005.79
2022-11-04T11:31:55.082Z,1005.83
2022-11-04T11:32:55.277Z,1005.83
2022-11-04T11:33:55.472Z,1005.82
2022-11-04T11:34:55.649Z,1005.79
2022-11-04T11:35:55.822Z,1005.82
2022-11-04T11:36:55.970Z,1005.76
2022-11-04T11:37:56.143Z,1005.77
2022-11-04T11:38:56.332Z,1005.76
2022-11-04T11:39:56.514Z,1005.73
2022-11-04T11:41:23.184Z,1005.71
2022-11-04T11:41:57.859Z,1005.66
2022-11-04T11:42:57.043Z,1005.58
2022-11-04T11:43:57.228Z,1005.57
2022-11-04T11:44:57.425Z,1005.55
2022-11-04T11:45:57.596Z,1005.53
2022-11-04T11:46:57.773Z,1005.55
2022-11-04T11:47:57.957Z,1005.53
2022-11-04T11:48:58.124Z,1005.48
2022-11-04T11:49:58.314Z,1005.48
2022-11-04T11:50:58.594Z,1005.48
2022-11-04T11:51:58.657Z,1005.50
2022-11-04T11:52:58.838Z,1005.47
2022-11-04T11:53:59.036Z,1005.47
2022-11-04T11:54:59.208Z,1005.50
2022-11-04T11:55:59.379Z,1005.51
2022-11-04T11:57:13.245Z,1005.55
2022-11-04T12:01:08.179Z,1005.53
2022-11-04T12:02:01.536Z,1005.55
2022-11-04T12:03:00.975Z,1005.48
2022-11-04T12:06:18.276Z,1005.50
2022-11-04T12:09:19.167Z,1005.56
2022-11-04T12:10:02.897Z,1005.53
2022-11-04T12:11:02.073Z,1005.56
2022-11-04T12:12:02.226Z,1005.53
2022-11-04T12:13:02.414Z,1005.56
2022-11-04T12:14:02.596Z,1005.50
2022-11-04T12:15:02.787Z,1005.46